createdAt,value
2022-09-16T00:02:05.122Z,52.33
2022-09-16T00:04:32.294Z,52.35
2022-09-16T00:06:59.143Z,52.54
2022-09-16T00:09:26.503Z,52.68
2022-09-16T00:11:53.827Z,52.78
2022-09-16T00:14:20.608Z,52.77
2022-09-16T00:16:47.560Z,52.89
2022-09-16T00:19:14.408Z,53.00
2022-09-16T00:21:41.254Z,53.08
2022-09-16T00:24:10.563Z,53.21
2022-09-16T00:26:38.806Z,53.38
2022-09-16T00:29:05.591Z,53.75
2022-09-16T00:31:32.488Z,53.77
2022-09-16T00:33:59.362Z,53.76
2022-09-16T00:36:26.236Z,53.92
2022-09-16T00:38:55.262Z,53.76
2022-09-16T00:41:27.618Z,53.59
2022-09-16T00:43:54.458Z,53.57
2022-09-16T00:46:33.824Z,53.47
2022-09-16T00:49:03.221Z,53.42
2022-09-16T00:51:30.771Z,53.32
2022-09-16T00:54:03.456Z,53.38
2022-09-16T00:56:31.684Z,53.33
2022-09-16T00:59:08.877Z,53.77
2022-09-16T01:01:36.316Z,53.37
2022-09-16T01:04:09.289Z,53.53
2022-09-16T01:06:37.588Z,53.87
2022-09-16T01:09:04.691Z,53.79
2022-09-16T01:11:32.152Z,54.07
2022-09-16T01:14:19.680Z,53.71
2022-09-16T01:16:58.373Z,53.75
2022-09-16T01:19:26.590Z,54.03
2022-09-16T01:22:09.201Z,54.16
2022-09-16T01:24:48.850Z,53.90
2022-09-16T01:27:48.672Z,53.57
2022-09-16T01:30:39.681Z,53.66
2022-09-16T01:33:12.834Z,53.54
2022-09-16T01:35:45.278Z,53.55
2022-09-16T01:38:23.468Z,53.64
2022-09-16T01:41:03.933Z,53.67
2022-09-16T01:43:54.969Z,53.90
2022-09-16T01:46:40.275Z,53.81
2022-09-16T01:49:40.870Z,53.89
2022-09-16T01:52:07.615Z,54.26
2022-09-16T01:54:40.098Z,54.61
2022-09-16T01:57:11.856Z,54.37
2022-09-16T01:59:43.322Z,54.45
2022-09-16T02:02:16.959Z,55.15
2022-09-16T02:04:50.239Z,54.67
2022-09-16T02:07:18.298Z,54.45
2022-09-16T02:09:48.946Z,54.58
2022-09-16T02:12:21.306Z,54.41
2022-09-16T02:14:48.559Z,54.88
2022-09-16T02:17:16.734Z,54.77
2022-09-16T02:19:49.114Z,54.73
2022-09-16T02:22:19.364Z,54.54
2022-09-16T02:24:47.109Z,54.27
2022-09-16T02:27:16.983Z,54.17
2022-09-16T02:29:47.076Z,54.16
2022-09-16T02:32:13.817Z,54.20
2022-09-16T02:34:43.321Z,54.20
2022-09-16T02:37:22.788Z,54.13
2022-09-16T02:39:50.800Z,54.22
2022-09-16T02:42:17.599Z,54.34
2022-09-16T02:44:44.824Z,54.11
2022-09-16T02:47:28.151Z,53.95
2022-09-16T02:49:56.470Z,53.95
2022-09-16T02:52:49.699Z,53.91
2022-09-16T02:55:25.140Z,53.84
2022-09-16T02:57:51.982Z,53.87
2022-09-16T03:00:20.678Z,53.90
2022-09-16T03:02:48.064Z,53.88
2022-09-16T03:05:14.977Z,53.89
2022-09-16T03:07:41.822Z,53.95
2022-09-16T03:10:15.383Z,53.90
2022-09-16T03:12:46.262Z,53.85
2022-09-16T03:15:32.257Z,53.87
2022-09-16T03:18:05.773Z,53.98
2022-09-16T03:20:54.523Z,54.08
2022-09-16T03:23:47.787Z,53.94
2022-09-16T03:26:30.509Z,53.90
2022-09-16T03:29:26.133Z,54.06
2022-09-16T03:32:32.932Z,54.05
2022-09-16T03:35:07.033Z,54.28
2022-09-16T03:37:35.652Z,54.53
2022-09-16T03:40:05.932Z,54.56
2022-09-16T03:42:32.715Z,55.03
2022-09-16T03:44:59.749Z,54.79
2022-09-16T03:47:26.496Z,54.55
2022-09-16T03:49:53.246Z,54.97
2022-09-16T03:52:20.912Z,54.87
2022-09-16T03:54:48.248Z,54.54
2022-09-16T03:57:15.027Z,54.32
2022-09-16T03:59:42.285Z,54.43
2022-09-16T04:02:09.130Z,54.56
2022-09-16T04:04:36.536Z,54.66
2022-09-16T04:07:03.650Z,54.56
2022-09-16T04:09:30.901Z,54.68
2022-09-16T04:11:57.652Z,54.53
2022-09-16T04:14:24.502Z,54.67
2022-09-16T04:16:51.866Z,54.75
2022-09-16T04:19:18.709Z,54.55
2022-09-16T04:21:45.666Z,54.65
2022-09-16T04:24:13.667Z,54.78
2022-09-16T04:26:41.607Z,54.53
2022-09-16T04:29:09.387Z,54.36
2022-09-16T04:31:36.222Z,54.40
2022-09-16T04:34:03.686Z,54.44
2022-09-16T04:36:30.625Z,54.29
2022-09-16T04:38:57.983Z,54.41
2022-09-16T04:41:25.952Z,54.21
2022-09-16T04:43:54.229Z,54.28
2022-09-16T04:46:21.136Z,54.45
2022-09-16T04:48:49.008Z,54.37
2022-09-16T04:51:16.116Z,54.46
2022-09-16T04:53:46.477Z,53.98
2022-09-16T04:56:19.087Z,53.97
2022-09-16T04:58:48.106Z,53.80
2022-09-16T05:01:16.630Z,53.77
2022-09-16T05:03:44.903Z,53.73
2022-09-16T05:06:18.353Z,53.71
2022-09-16T05:08:48.860Z,53.59
2022-09-16T05:11:19.500Z,53.73
2022-09-16T05:13:46.333Z,53.67
2022-09-16T05:16:15.167Z,53.65
2022-09-16T05:18:43.088Z,53.42
2022-09-16T05:21:12.742Z,53.28
2022-09-16T05:23:45.944Z,53.22
2022-09-16T05:26:24.974Z,52.94
2022-09-16T05:28:52.063Z,52.97
2022-09-16T05:31:25.644Z,52.99
2022-09-16T05:34:14.421Z,53.03
2022-09-16T05:36:43.847Z,52.90
2022-09-16T05:39:23.641Z,52.69
2022-09-16T05:41:53.168Z,52.53
2022-09-16T05:44:19.911Z,52.41
2022-09-16T05:46:47.367Z,52.51
2022-09-16T05:49:21.217Z,52.74
2022-09-16T05:51:48.846Z,52.79
2022-09-16T05:54:18.389Z,52.54
2022-09-16T05:56:45.802Z,52.58
2022-09-16T05:59:13.554Z,52.51
2022-09-16T06:01:41.273Z,52.60
2022-09-16T06:04:11.959Z,52.44
2022-09-16T06:06:45.880Z,52.57
2022-09-16T06:09:20.102Z,52.39
2022-09-16T06:11:49.303Z,52.22
2022-09-16T06:14:17.135Z,52.02
2022-09-16T06:16:44.182Z,51.76
2022-09-16T06:19:13.607Z,51.09
2022-09-16T06:21:41.145Z,51.20
2022-09-16T06:24:10.766Z,50.90
2022-09-16T06:26:39.461Z,50.68
2022-09-16T06:29:07.099Z,50.61
2022-09-16T06:31:34.140Z,50.53
2022-09-16T06:34:01.089Z,50.22
2022-09-16T06:36:29.770Z,49.55
2022-09-16T06:38:57.003Z,49.35
2022-09-16T06:41:24.273Z,49.22
2022-09-16T06:43:52.139Z,49.13
2022-09-16T06:46:23.857Z,48.98
2022-09-16T06:48:52.697Z,48.99
2022-09-16T06:54:23.831Z,48.44
2022-09-16T06:56:51.387Z,48.22
2022-09-16T06:59:18.374Z,48.31
2022-09-16T07:01:45.512Z,48.26
2022-09-16T07:04:13.667Z,47.97
2022-09-16T07:07:10.940Z,47.97
2022-09-16T07:09:28.023Z,48.21
2022-09-16T07:11:55.589Z,47.83
2022-09-16T07:14:23.144Z,47.84
2022-09-16T07:16:50.260Z,47.84
2022-09-16T07:19:17.133Z,47.40
2022-09-16T07:21:44.146Z,47.47
2022-09-16T07:24:12.877Z,47.17
2022-09-16T07:26:40.684Z,47.17
2022-09-16T07:29:11.371Z,47.19
2022-09-16T07:31:38.816Z,47.10
2022-09-16T07:34:06.950Z,46.98
2022-09-16T07:36:36.157Z,46.73
2022-09-16T07:39:04.051Z,46.79
2022-09-16T07:41:34.277Z,46.78
2022-09-16T07:44:02.078Z,46.37
2022-09-16T07:46:30.651Z,46.50
2022-09-16T07:48:58.482Z,46.49
2022-09-16T07:51:26.131Z,46.06
2022-09-16T07:53:55.349Z,46.00
2022-09-16T07:56:25.510Z,46.19
2022-09-16T07:58:53.840Z,45.43
2022-09-16T08:01:20.832Z,45.41
2022-09-16T08:03:47.985Z,45.37
2022-09-16T08:06:22.384Z,45.46
2022-09-16T08:08:55.543Z,45.56
2022-09-16T08:11:22.589Z,44.97
2022-09-16T08:13:49.841Z,45.12
2022-09-16T08:16:19.301Z,45.52
2022-09-16T08:18:48.106Z,45.50
2022-09-16T08:21:16.817Z,45.59
2022-09-16T08:23:47.044Z,45.69
2022-09-16T08:26:16.237Z,45.69
2022-09-16T08:29:07.332Z,45.89
2022-09-16T08:31:32.271Z,45.47
2022-09-16T08:33:59.704Z,45.26
2022-09-16T08:36:29.151Z,45.49
2022-09-16T08:38:56.953Z,45.56
2022-09-16T08:41:47.677Z,45.42
2022-09-16T08:44:33.950Z,45.18
2022-09-16T08:47:02.559Z,45.05
2022-09-16T08:49:43.957Z,44.73
2022-09-16T08:52:23.405Z,44.66
2022-09-16T08:54:53.674Z,44.70
2022-09-16T08:57:22.867Z,44.76
2022-09-16T08:59:55.709Z,44.18
2022-09-16T09:02:38.368Z,43.67
2022-09-16T09:05:27.390Z,43.36
2022-09-16T09:07:55.058Z,43.67
2022-09-16T09:10:28.665Z,44.06
2022-09-16T09:13:14.102Z,43.70
2022-09-16T09:15:52.467Z,43.16
2022-09-16T09:18:39.287Z,43.08
2022-09-16T09:21:27.502Z,43.16
2022-09-16T09:24:24.891Z,43.70
2022-09-16T09:26:53.175Z,43.59
2022-09-16T09:29:38.858Z,43.61
2022-09-16T09:32:49.031Z,43.38
2022-09-16T09:35:41.665Z,43.12
2022-09-16T09:38:17.829Z,43.28
2022-09-16T09:40:56.762Z,43.20
2022-09-16T09:43:41.422Z,43.31
2022-09-16T09:46:26.600Z,43.25
2022-09-16T09:49:15.563Z,43.56
2022-09-16T09:52:10.772Z,43.74
2022-09-16T09:54:39.395Z,43.64
2022-09-16T09:57:37.743Z,43.55
2022-09-16T10:00:15.341Z,43.70
2022-09-16T10:02:49.658Z,42.93
2022-09-16T10:05:25.519Z,42.80
2022-09-16T10:07:53.423Z,42.29
2022-09-16T10:10:24.845Z,41.76
2022-09-16T10:12:51.997Z,41.52
2022-09-16T10:15:45.058Z,41.78
2022-09-16T10:18:27.265Z,41.66
2022-09-16T10:21:07.173Z,41.16
2022-09-16T10:23:34.580Z,41.56
2022-09-16T10:26:19.637Z,41.64
2022-09-16T10:29:02.070Z,41.71
2022-09-16T10:31:35.848Z,41.88
2022-09-16T10:34:03.942Z,41.58
2022-09-16T10:36:34.660Z,41.92
2022-09-16T10:39:04.655Z,41.72
2022-09-16T10:41:34.409Z,41.81
2022-09-16T10:44:22.960Z,41.10
2022-09-16T10:47:01.173Z,40.71
2022-09-16T10:49:55.264Z,39.97
2022-09-16T10:52:24.908Z,38.39
2022-09-16T10:54:52.434Z,38.54
2022-09-16T10:57:25.522Z,38.89
2022-09-16T11:00:01.072Z,38.76
2022-09-16T11:02:55.565Z,38.09
2022-09-16T11:05:51.139Z,38.14
2022-09-16T11:08:43.540Z,36.73
2022-09-16T11:11:20.432Z,36.12
2022-09-16T11:14:06.194Z,36.97
2022-09-16T11:16:49.114Z,35.96
2022-09-16T11:19:28.650Z,36.18
2022-09-16T11:22:05.766Z,35.83
2022-09-16T11:25:08.316Z,35.70
2022-09-16T11:27:53.895Z,35.37
2022-09-16T11:30:22.595Z,35.74
2022-09-16T11:33:27.990Z,35.53
2022-09-16T11:36:30.609Z,36.33
2022-09-16T11:39:16.294Z,36.01
2022-09-16T11:42:01.568Z,35.55
2022-09-16T11:45:07.473Z,35.40
2022-09-16T11:47:48.911Z,35.79
2022-09-16T11:50:49.855Z,36.29
2022-09-16T11:53:41.668Z,35.62
2022-09-16T11:56:22.660Z,36.69
2022-09-16T11:59:04.259Z,36.29
2022-09-16T12:01:39.971Z,35.54
2022-09-16T12:04:27.084Z,36.06
2022-09-16T12:07:13.661Z,35.82
2022-09-16T12:09:45.341Z,36.43
2022-09-16T12:12:14.827Z,36.54
2022-09-16T12:14:44.011Z,35.87
2022-09-16T12:17:24.594Z,36.21
2022-09-16T12:20:12.375Z,36.07
2022-09-16T12:22:49.569Z,36.48
2022-09-16T12:25:22.658Z,36.28
2022-09-16T12:27:58.108Z,36.61
2022-09-16T12:30:31.208Z,36.97
2022-09-16T12:33:06.553Z,36.58
2022-09-16T12:35:34.901Z,36.72
2022-09-16T12:38:01.986Z,36.37
2022-09-16T12:40:50.649Z,36.28
2022-09-16T12:43:37.155Z,36.41
2022-09-16T12:46:07.307Z,36.21
2022-09-16T12:48:52.964Z,36.29
2022-09-16T12:52:11.117Z,36.31
2022-09-16T12:55:14.400Z,35.38
2022-09-16T12:58:00.524Z,35.99
2022-09-16T13:00:41.878Z,35.89
2022-09-16T13:03:17.463Z,35.83
2022-09-16T13:05:47.991Z,35.85
2022-09-16T13:08:27.840Z,35.28
2022-09-16T13:11:20.935Z,35.08
2022-09-16T13:14:03.826Z,35.20
2022-09-16T13:16:36.097Z,35.29
2022-09-16T13:19:22.209Z,35.12
2022-09-16T13:21:49.917Z,35.42
2022-09-16T13:24:45.150Z,35.75
2022-09-16T13:27:32.950Z,35.66
2022-09-16T13:30:09.895Z,34.73
2022-09-16T13:32:41.044Z,35.05
2022-09-16T13:35:21.353Z,35.13
2022-09-16T13:37:49.281Z,35.41
2022-09-16T13:40:30.762Z,35.39
2022-09-16T13:43:10.100Z,35.53
2022-09-16T13:45:38.060Z,35.82
2022-09-16T13:48:17.294Z,35.71
2022-09-16T13:50:48.859Z,35.85
2022-09-16T13:53:21.447Z,35.83
2022-09-16T13:55:49.135Z,35.72
2022-09-16T13:58:30.795Z,35.70
2022-09-16T14:01:13.185Z,36.08
2022-09-16T14:04:20.900Z,35.91
2022-09-16T14:06:53.683Z,35.95
2022-09-16T14:09:29.904Z,35.83
2022-09-16T14:12:05.281Z,36.18
2022-09-16T14:14:48.653Z,36.47
2022-09-16T14:17:27.706Z,36.44
2022-09-16T14:19:59.831Z,36.28
2022-09-16T14:22:28.251Z,36.60
2022-09-16T14:25:06.850Z,37.07
2022-09-16T14:27:44.407Z,36.99
2022-09-16T14:30:18.655Z,37.13
2022-09-16T14:32:46.733Z,37.03
2022-09-16T14:35:24.578Z,37.32
2022-09-16T14:37:56.153Z,37.18
2022-09-16T14:40:24.251Z,37.10
2022-09-16T14:43:00.433Z,37.38
2022-09-16T14:45:28.203Z,38.05
2022-09-16T14:47:55.667Z,38.29
2022-09-16T14:50:27.918Z,38.08
2022-09-16T14:52:57.859Z,38.13
2022-09-16T14:55:36.325Z,38.39
2022-09-16T14:58:03.844Z,38.42
2022-09-16T15:01:02.134Z,38.65
2022-09-16T15:03:38.402Z,38.78
2022-09-16T15:06:07.940Z,38.74
2022-09-16T15:08:55.656Z,39.01
2022-09-16T15:11:46.569Z,39.15
2022-09-16T15:14:11.462Z,39.27
2022-09-16T15:16:44.776Z,39.32
2022-09-16T15:19:34.669Z,39.40
2022-09-16T15:22:02.204Z,39.43
2022-09-16T15:24:34.071Z,39.56
2022-09-16T15:27:01.022Z,39.56
2022-09-16T15:29:33.395Z,39.86
2022-09-16T15:32:15.321Z,39.91
2022-09-16T15:34:44.056Z,39.80
2022-09-16T15:37:49.652Z,39.83
2022-09-16T15:40:42.717Z,39.75
2022-09-16T15:43:15.832Z,39.84
2022-09-16T15:45:43.889Z,39.72
2022-09-16T15:48:20.984Z,39.78
2022-09-16T15:50:56.783Z,39.88
2022-09-16T15:53:30.031Z,39.90
2022-09-16T15:55:57.388Z,40.22
2022-09-16T15:58:33.453Z,40.37
2022-09-16T16:01:03.172Z,40.37
2022-09-16T16:03:45.585Z,40.41
2022-09-16T16:06:13.185Z,40.59
2022-09-16T16:08:43.766Z,40.67
2022-09-16T16:11:12.881Z,40.79
2022-09-16T16:13:40.756Z,40.91
2022-09-16T16:16:08.584Z,41.01
2022-09-16T16:18:36.501Z,41.08
2022-09-16T16:21:13.146Z,41.24
2022-09-16T16:23:40.129Z,41.37
2022-09-16T16:26:08.123Z,41.45
2022-09-16T16:28:36.580Z,41.63
2022-09-16T16:31:13.003Z,41.71
2022-09-16T16:33:48.802Z,41.86
2022-09-16T16:36:16.777Z,41.92
2022-09-16T16:38:47.197Z,41.95
2022-09-16T16:41:22.742Z,41.98
2022-09-16T16:43:50.059Z,42.16
2022-09-16T16:46:18.064Z,42.31
2022-09-16T16:48:45.114Z,42.19
2022-09-16T16:51:13.389Z,42.23
2022-09-16T16:53:41.524Z,42.32
2022-09-16T16:56:14.842Z,42.36
2022-09-16T16:58:45.900Z,42.47
2022-09-16T17:01:19.852Z,42.53
2022-09-16T17:03:50.429Z,42.79
2022-09-16T17:06:17.888Z,42.75
2022-09-16T17:08:44.832Z,42.86
2022-09-16T17:11:12.084Z,43.13
2022-09-16T17:13:40.871Z,43.00
2022-09-16T17:16:08.565Z,43.10
2022-09-16T17:18:36.810Z,43.10
2022-09-16T17:21:09.489Z,43.24
2022-09-16T17:23:36.308Z,43.30
2022-09-16T17:26:03.723Z,43.31
2022-09-16T17:28:30.525Z,43.44
2022-09-16T17:30:58.100Z,43.58
2022-09-16T17:33:26.039Z,43.63
2022-09-16T17:36:03.940Z,43.75
2022-09-16T17:38:30.809Z,43.72
2022-09-16T17:41:16.802Z,43.83
2022-09-16T17:43:44.782Z,44.12
2022-09-16T17:46:16.504Z,44.04
2022-09-16T17:48:44.005Z,44.23
2022-09-16T17:51:11.061Z,44.19
2022-09-16T17:53:38.280Z,44.33
2022-09-16T17:56:11.742Z,44.54
2022-09-16T17:58:40.705Z,44.57
2022-09-16T18:01:10.052Z,44.54
2022-09-16T18:03:37.386Z,44.68
2022-09-16T18:06:10.383Z,44.77
2022-09-16T18:08:37.540Z,44.94
2022-09-16T18:11:05.055Z,44.94
2022-09-16T18:13:33.499Z,44.90
2022-09-16T18:16:10.744Z,44.94
2022-09-16T18:18:39.322Z,45.00
2022-09-16T18:21:10.480Z,45.03
2022-09-16T18:23:38.614Z,45.26
2022-09-16T18:26:06.993Z,45.39
2022-09-16T18:28:58.291Z,45.36
2022-09-16T18:31:25.583Z,45.53
2022-09-16T18:33:56.042Z,45.63
2022-09-16T18:36:25.481Z,45.81
2022-09-16T18:38:53.535Z,45.95
2022-09-16T18:41:25.375Z,46.03
2022-09-16T18:43:55.346Z,45.99
2022-09-16T18:46:27.076Z,45.91
2022-09-16T18:48:54.043Z,46.05
2022-09-16T18:51:24.455Z,46.09
2022-09-16T18:53:52.254Z,46.36
2022-09-16T18:56:21.541Z,46.38
2022-09-16T18:59:16.838Z,46.41
2022-09-16T19:01:38.144Z,46.52
2022-09-16T19:04:06.646Z,46.44
2022-09-16T19:06:38.246Z,46.54
2022-09-16T19:09:06.720Z,46.83
2022-09-16T19:11:34.407Z,46.83
2022-09-16T19:14:02.056Z,46.93
2022-09-16T19:16:28.907Z,47.00
2022-09-16T19:18:56.678Z,47.11
2022-09-16T19:21:23.974Z,47.06
2022-09-16T19:24:00.429Z,47.17
2022-09-16T19:26:31.142Z,47.25
2022-09-16T19:28:58.725Z,47.32
2022-09-16T19:31:25.933Z,47.50
2022-09-16T19:33:54.235Z,47.54
2022-09-16T19:36:24.808Z,47.51
2022-09-16T19:38:52.246Z,47.46
2022-09-16T19:41:20.527Z,47.44
2022-09-16T19:43:47.623Z,47.58
2022-09-16T19:46:17.159Z,47.55
2022-09-16T19:48:46.367Z,47.60
2022-09-16T19:51:14.530Z,47.69
2022-09-16T19:53:42.305Z,47.81
2022-09-16T19:56:14.279Z,47.92
2022-09-16T19:58:41.329Z,48.12
2022-09-16T20:01:10.616Z,48.14
2022-09-16T20:03:39.184Z,48.25
2022-09-16T20:06:13.154Z,48.21
2022-09-16T20:08:41.156Z,48.20
2022-09-16T20:11:13.864Z,48.13
2022-09-16T20:13:41.199Z,48.10
2022-09-16T20:16:08.879Z,48.29
2022-09-16T20:18:36.331Z,48.43
2022-09-16T20:21:07.722Z,48.43
2022-09-16T20:23:34.634Z,48.35
2022-09-16T20:26:06.499Z,48.45
2022-09-16T20:28:35.147Z,48.56
2022-09-16T20:31:02.352Z,48.78
2022-09-16T20:33:33.267Z,48.90
2022-09-16T20:36:11.812Z,49.00
2022-09-16T20:38:39.986Z,49.18
2022-09-16T20:41:08.501Z,49.31
2022-09-16T20:43:35.533Z,49.32
2022-09-16T20:46:15.685Z,49.37
2022-09-16T20:48:42.743Z,49.46
2022-09-16T20:51:11.951Z,49.39
2022-09-16T20:53:40.306Z,49.49
2022-09-16T20:56:10.282Z,49.47
2022-09-16T20:58:37.507Z,49.60
2022-09-16T21:01:20.768Z,49.74
2022-09-16T21:03:51.476Z,49.92
2022-09-16T21:06:18.731Z,50.02
2022-09-16T21:08:45.783Z,50.11
2022-09-16T21:11:13.587Z,50.18
2022-09-16T21:13:41.638Z,50.44
2022-09-16T21:16:10.298Z,50.49
2022-09-16T21:18:37.196Z,50.59
2022-09-16T21:21:09.246Z,50.64
2022-09-16T21:23:36.197Z,50.75
2022-09-16T21:26:16.672Z,50.66
2022-09-16T21:28:44.956Z,50.65
2022-09-16T21:31:13.699Z,50.74
2022-09-16T21:33:41.928Z,50.77
2022-09-16T21:36:11.409Z,50.62
2022-09-16T21:38:38.812Z,50.71
2022-09-16T21:41:09.498Z,50.60
2022-09-16T21:43:49.672Z,50.65
2022-09-16T21:46:19.378Z,50.67
2022-09-16T21:48:50.474Z,50.76
2022-09-16T21:51:19.396Z,50.81
2022-09-16T21:53:46.571Z,50.91
2022-09-16T21:56:18.499Z,51.06
2022-09-16T21:58:45.357Z,51.14
2022-09-16T22:01:16.958Z,51.04
2022-09-16T22:03:45.265Z,51.16
2022-09-16T22:06:13.277Z,51.12
2022-09-16T22:08:40.123Z,51.10
2022-09-16T22:11:09.126Z,51.09
2022-09-16T22:13:36.850Z,51.04
2022-09-16T22:16:04.814Z,51.19
2022-09-16T22:18:32.021Z,51.31
2022-09-16T22:21:03.171Z,51.46
2022-09-16T22:23:30.535Z,51.64
2022-09-16T22:25:58.519Z,51.71
2022-09-16T22:28:25.261Z,51.78
2022-09-16T22:30:52.008Z,51.99
2022-09-16T22:33:19.060Z,52.01
2022-09-16T22:35:46.130Z,52.15
2022-09-16T22:38:13.677Z,52.37
2022-09-16T22:40:41.028Z,52.37
2022-09-16T22:43:07.770Z,52.48
2022-09-16T22:45:34.717Z,52.56
2022-09-16T22:48:01.661Z,52.67
2022-09-16T22:50:28.405Z,52.59
2022-09-16T22:52:55.873Z,52.81
2022-09-16T22:55:23.233Z,52.95
2022-09-16T22:57:50.084Z,52.88
2022-09-16T23:00:16.926Z,53.01
2022-09-16T23:02:43.644Z,53.05
2022-09-16T23:05:10.899Z,53.09
2022-09-16T23:07:38.937Z,53.32
2022-09-16T23:10:10.444Z,53.36
2022-09-16T23:12:37.553Z,53.42
2022-09-16T23:15:06.144Z,53.43
2022-09-16T23:17:32.891Z,53.48
2022-09-16T23:20:00.157Z,53.64
2022-09-16T23:22:27.616Z,53.88
2022-09-16T23:24:54.372Z,54.01
2022-09-16T23:27:21.112Z,54.30
2022-09-16T23:29:48.167Z,54.29
2022-09-16T23:32:15.535Z,54.35
2022-09-16T23:34:42.894Z,54.28
2022-09-16T23:37:09.751Z,54.32
2022-09-16T23:39:36.900Z,54.34
2022-09-16T23:42:03.855Z,54.36
2022-09-16T23:44:31.525Z,54.63
2022-09-16T23:46:59.199Z,54.76
2022-09-16T23:49:26.036Z,54.82
2022-09-16T23:51:52.780Z,54.81
2022-09-16T23:54:20.349Z,54.95
2022-09-16T23:56:47.712Z,55.18
2022-09-16T23:59:15.381Z,55.25
